Date,TemperatureHighF,TemperatureAvgF,TemperatureLowF,DewpointHighF,DewpointAvgF,DewpointLowF,HumidityHigh,HumidityAvg,HumidityLow,PressureMaxIn,PressureMinIn,WindSpeedMaxMPH,WindSpeedAvgMPH,GustSpeedMaxMPH,PrecipitationSumIn
2013-12-1,54,38,25,45,30,19,81,73,65,30.13,29.91,1,0,4,0.00
2013-12-2,54,44,36,47,37,29,84,77,72,29.91,29.63,5,1,9,0.00
2013-12-3,58,48,40,53,44,36,92,85,80,29.64,29.53,10,3,13,0.00
2013-12-4,60,45,28,55,41,23,89,85,79,29.92,29.47,7,4,15,0.01
2013-12-5,27,22,20,23,15,13,83,76,71,30.35,29.92,8,5,15,0.00
2013-12-6,21,16,11,13,8,2,71,69,65,30.67,30.34,7,4,16,0.00
2013-12-7,21,14,7,12,5,-1,76,67,64,30.77,30.49,6,2,12,0.00
2013-12-8,24,21,18,20,15,8,84,76,65,30.49,30.03,4,1,10,0.00
2013-12-9,23,16,11,19,12,6,89,81,77,30.39,30.13,7,2,12,0.00
2013-12-10,35,21,8,24,13,3,79,71,63,30.34,30.24,7,2,15,0.00
2013-12-11,26,19,6,18,11,-4,75,68,61,30.67,30.29,8,2,15,0.00
2013-12-12,42,22,5,25,10,-5,70,61,50,30.65,30.24,5,1,12,0.00
2013-12-13,34,31,26,30,24,15,87,74,61,30.24,29.91,6,3,12,0.27
2013-12-14,32,29,21,29,26,18,89,88,87,30.21,29.86,0,0,5,0.00
2013-12-15,28,18,17,25,16,14,90,89,89,30.21,30.02,0,0,0,0.12
2013-12-16,30,25,22,28,23,19,92,90,90,30.13,29.99,4,1,7,0.02
2013-12-17,40,31,21,35,27,16,92,85,77,30.29,30.14,9,2,15,0.12
2013-12-18,52,38,18,41,30,14,89,72,63,30.27,29.86,8,3,17,0.02
2013-12-19,55,49,44,48,42,35,81,76,69,29.87,29.69,8,4,13,0.00
2013-12-20,54,39,28,50,35,25,90,86,81,29.89,29.64,6,3,13,0.00
2013-12-21,32,30,28,29,27,25,91,90,89,29.88,29.59,6,3,13,0.00
2013-12-22,32,28,18,30,25,15,91,90,88,30.35,29.61,0,0,6,0.00
2013-12-23,18,13,6,15,10,2,89,87,85,30.65,30.35,5,2,10,0.00
2013-12-24,25,15,2,21,11,-2,92,85,83,30.65,30.31,7,2,15,0.00
2013-12-25,33,30,25,30,27,21,90,88,84,30.34,30.24,4,2,12,0.02
2013-12-26,44,33,20,39,29,18,91,87,82,30.35,30.22,6,2,12,0.31
2013-12-27,52,40,31,44,34,27,92,80,70,30.35,30.19,4,1,9,0.09
2013-12-28,55,45,36,42,34,28,78,67,57,30.20,29.88,5,2,11,0.00
2013-12-29,40,25,14,30,16,5,75,71,63,30.32,29.85,11,5,18,0.00
2013-12-30,29,19,9,18,9,1,76,65,61,30.37,30.20,5,2,13,0.00
2013-12-31,45,35,17,32,24,9,72,64,60,30.37,30.12,7,2,14,0.00